Terminal Aerodrome Forecast
Issued by NWS Newport/Morehead City, NC

Home | Current Version | Previous Version | Graphics & Text | Print | Product List | Glossary On
Versions: 1 2 3 4 5 6 7 8 9 10 11 12 13 14 15 16 17 18
302
FTUS42 KMHX 131758
TAFEWN
TAF
KEWN 131758Z 1318/1418 27004KT P6SM SKC
     FM132200 33005KT P6SM BKN050
     FM140000 05010G19KT P6SM BKN030
     FM141200 04010KT P6SM BKN030=

USA.gov is the U.S. government's official web portal to all federal, state and local government web resources and services.